Airfield :
LOGIN :

Register | Disclaimer

   EN    FR    IT 

 










Legend :    VFR   Marginal VFR   IFR   Intensive IFR   Very Intensive IFR
Visi :
Ceiling :
>= 8 km
>= 3000ft
5 to 8 km
1000 to 3000 ft
1500m to 5 km
500 to 1000 ft
800 to 1500m
200 to 500 ft
< 800m
< 200 ft
Symbols :   Thunderstorms  Fog  Heavy snow  Heavy precipitations  Wind > 20 kt
SIGMETs :     Misc.  Thunderstorms  Icing  Turbulence  Mountain Waves  Volcanic Ashes






- Airport Elevation : 297 ft
- IATA code : ODB


LEBA - Córdoba

CURRENT METAR :
  • 211600Z 24011KT 210V290 CAVOK 26/06 Q1015

EXPIRED METARs :
  • 211530Z 24009G19KT 180V290 CAVOK 26/06 Q1015
  • 211500Z 25010KT 210V290 CAVOK 25/07 Q1016
  • 211430Z 27013KT 240V300 CAVOK 25/07 Q1016
  • 211400Z 22012KT 180V260 CAVOK 24/07 Q1016
  • 211330Z 25012KT 210V290 CAVOK 24/07 Q1016
  • 211300Z 23009KT CAVOK 24/07 Q1017
  • 211230Z 25008KT 190V300 9999 FEW050 23/06 Q1017
  • 211200Z 24012KT 220V280 9999 FEW050 23/06 Q1017
  • 211130Z 27009KT 220V330 9999 FEW050 22/08 Q1017

TAF TAF LEBA
Valid from the 21 at 15:00 until the 22 at 15:00 UTC


211400Z 2115/2215 28010KT CAVOK TX27/2215Z TN13/2205Z
BECMG 2121/2123 VRB04KT



MET'MAP, your aeronautical weather chart ! - Copyright ORBIFLY December 2007 - Disclaimer

ORBIFLY MET'MAP TEAM :

Programming & Development : Alexandra Zaïnal
Original concept : Baudouin d'Aumeries
Technical & hardware support : Manuel Goepfert
Assistance : Marc-Olivier Méhu




SOURCES & CREDITS :

   NOAA